»·PEaware :: N150RK KMHV-KSBD

N150RK :: KMHV-KSBD

FLIGHT INFORMATION

Flight Status: Arrived
Operator: Privately registered:
United States
More flights under this callsign
Pilot: Igor R. (30177)
Aircraft: BEECH AIRCRAFT A90-E90 KING AIR
(BE9L)
More flights by this aircraft type
Origin: KMHV Mojave
United States
Destination: KSBD San Bernardino Intl
United States
More flights between these airports :: More routes between these airports
Route: DCT KWJF
File this flight plan on PilotEdge
Remarks: / from KBFL
Altitude:
(Current/Filed)
10,500ft
Speed:
(Current/Filed)
200kts
Departed: 14-Aug-20 07:52 PM
Arrived: 14-Aug-20 08:40 PM
Distance/Time
Traveled:
73nm/0:47
Distance/Time
To Go:
Arrived

Flight Plot

Page will automatically refresh every two minutes.

Flight plan parsing failed; only flown route is shown


Map Options




Map Legend


Flown Route
Filed Route
Departure Airport
Arrival Airport
Navaid (VOR, NDB)
Fix

Horizontal Profiles

Position Reports

Time Latitude Longitude Heading Altitude Ground
Speed
14-Aug-20 19:27 35.057242 -118.158059 270 2763ft 0kts
14-Aug-20 19:28 35.057242 -118.158059 270 2763ft 0kts
14-Aug-20 19:29 35.057242 -118.158059 270 2763ft 0kts
14-Aug-20 19:30 35.057242 -118.158059 270 2763ft 0kts
14-Aug-20 19:31 35.057242 -118.158059 270 2763ft 0kts
14-Aug-20 19:32 35.057242 -118.158059 270 2763ft 0kts
14-Aug-20 19:33 35.057242 -118.158059 270 2763ft 0kts
14-Aug-20 19:34 35.057242 -118.158059 270 2763ft 0kts
14-Aug-20 19:35 35.057242 -118.158059 270 2763ft 0kts
14-Aug-20 19:36 35.057242 -118.158059 270 2763ft 0kts
14-Aug-20 19:37 35.057242 -118.158059 270 2763ft 0kts
14-Aug-20 19:38 35.057242 -118.158059 270 2763ft 0kts
14-Aug-20 19:39 35.057242 -118.158059 270 2763ft 0kts
14-Aug-20 19:40 35.057630 -118.157145 89 2762ft 17kts
14-Aug-20 19:41 35.057600 -118.149292 92 2743ft 26kts
14-Aug-20 19:42 35.052370 -118.142500 134 2716ft 30kts
14-Aug-20 19:43 35.046770 -118.135721 135 2692ft 23kts
14-Aug-20 19:44 35.044275 -118.131785 47 2679ft 0kts
14-Aug-20 19:45 35.044275 -118.131785 49 2679ft 0kts
14-Aug-20 19:46 35.044275 -118.131785 47 2679ft 0kts
14-Aug-20 19:47 35.044275 -118.131785 47 2679ft 0kts
14-Aug-20 19:48 35.044275 -118.131785 47 2679ft 0kts
14-Aug-20 19:49 35.044275 -118.131785 47 2679ft 0kts
14-Aug-20 19:50 35.045299 -118.131599 317 2680ft 7kts
14-Aug-20 19:51 35.065413 -118.154502 320 3658ft 119kts
14-Aug-20 19:52 35.092109 -118.155524 31 5212ft 113kts
14-Aug-20 19:53 35.101105 -118.127663 115 6304ft 104kts
14-Aug-20 19:54 35.079144 -118.106230 157 7231ft 102kts
14-Aug-20 19:55 35.054289 -118.088003 164 8078ft 106kts
14-Aug-20 19:56 35.030799 -118.097318 218 8891ft 100kts
14-Aug-20 19:57 35.007689 -118.116633 202 9675ft 106kts
14-Aug-20 19:58 34.978948 -118.127427 197 10658ft 106kts
14-Aug-20 19:59 34.939901 -118.145072 207 10635ft 177kts
14-Aug-20 20:00 34.896670 -118.170925 205 10755ft 180kts
14-Aug-20 20:01 34.851309 -118.195214 189 10675ft 177kts
14-Aug-20 20:02 34.814315 -118.231864 197 10798ft 172kts
14-Aug-20 20:03 34.764151 -118.238838 171 10452ft 187kts
14-Aug-20 20:04 34.714682 -118.224469 148 10446ft 182kts
14-Aug-20 20:06 34.684608 -118.175125 123 10455ft 183kts
14-Aug-20 20:07 34.653385 -118.126909 132 10459ft 182kts
14-Aug-20 20:08 34.624723 -118.076327 129 10463ft 182kts
14-Aug-20 20:09 34.595713 -118.025560 127 10461ft 183kts
14-Aug-20 20:10 34.562570 -117.978961 136 10462ft 182kts
14-Aug-20 20:11 34.528390 -117.933835 126 10455ft 183kts
14-Aug-20 20:12 34.499065 -117.884029 125 10445ft 183kts
14-Aug-20 20:13 34.472104 -117.831563 121 10427ft 177kts
14-Aug-20 20:14 34.450009 -117.780919 117 10436ft 176kts
14-Aug-20 20:15 34.429801 -117.724858 112 10443ft 184kts
14-Aug-20 20:16 34.413373 -117.667318 108 10457ft 185kts
14-Aug-20 20:17 34.395734 -117.609812 123 10583ft 183kts
14-Aug-20 20:18 34.361830 -117.563701 133 10572ft 184kts
14-Aug-20 20:19 34.321717 -117.524864 148 10564ft 183kts
14-Aug-20 20:19 34.283640 -117.502519 158 10540ft 183kts
14-Aug-20 20:21 34.226158 -117.484827 170 10507ft 183kts
14-Aug-20 20:22 34.175525 -117.478725 173 10503ft 182kts
14-Aug-20 20:22 34.138160 -117.458827 139 10499ft 182kts
14-Aug-20 20:23 34.099365 -117.419468 138 10430ft 175kts
14-Aug-20 20:24 34.065806 -117.387847 147 9220ft 115kts
14-Aug-20 20:26 34.027973 -117.364266 158 6748ft 173kts
14-Aug-20 20:26 33.997065 -117.339362 150 5237ft 159kts
14-Aug-20 20:27 33.966339 -117.318947 150 4068ft 118kts
14-Aug-20 20:28 33.943002 -117.300444 118 3027ft 116kts
14-Aug-20 20:29 33.926418 -117.273441 138 3083ft 101kts
14-Aug-20 20:30 33.907979 -117.246685 132 2782ft 101kts
14-Aug-20 20:31 33.888558 -117.218088 136 3396ft 117kts
14-Aug-20 20:32 33.880929 -117.209633 51 4300ft 126kts
14-Aug-20 20:33 33.916772 -117.209102 335 5343ft 161kts
14-Aug-20 20:34 33.956081 -117.239658 329 6624ft 182kts
14-Aug-20 20:35 34.007826 -117.271059 327 5160ft 209kts
14-Aug-20 20:36 34.048739 -117.297208 341 4817ft 121kts
14-Aug-20 20:37 34.077688 -117.288437 59 2425ft 138kts
14-Aug-20 20:38 34.089821 -117.253318 71 1122ft 85kts
14-Aug-20 20:39 34.095760 -117.233231 71 1121ft 34kts
14-Aug-20 20:40 34.098460 -117.227230 42 1137ft 12kts
14-Aug-20 20:41 34.100060 -117.225004 71 1145ft 13kts
14-Aug-20 20:42 34.101309 -117.221732 242 1151ft 19kts
14-Aug-20 20:43 34.102570 -117.224637 113 1145ft 7kts
14-Aug-20 20:44 34.102480 -117.224611 177 1145ft 0kts
14-Aug-20 20:45 34.102480 -117.224611 177 1145ft 0kts
14-Aug-20 20:46 34.102480 -117.224611 177 1145ft 0kts
14-Aug-20 20:47 34.102480 -117.224611 177 1145ft 0kts
14-Aug-20 20:48 34.102480 -117.224611 177 1145ft 0kts
14-Aug-20 20:49 34.102480 -117.224611 177 1145ft 0kts
14-Aug-20 20:50 34.102480 -117.224611 177 1145ft 0kts
14-Aug-20 20:51 34.102480 -117.224611 177 1145ft 0kts
14-Aug-20 20:52 34.102480 -117.224611 177 1145ft 0kts
14-Aug-20 20:53 34.102480 -117.224611 177 1145ft 0kts

Navigation Log

Ident Type
Flight plan parsing failed, navigation log unavailable